Time;durP1;ratioP1;P1;durP2;ratioP2;P2;SDS_P1;SDS_P2;PMS_P1;PMS_P2;Temp;Humidity;BMP_temperature;BMP_pressure;BME280_temperature;BME280_humidity;BME280_pressure;Samples;Min_cycle;Max_cycle;Signal;HPM_P1;HPM_P2
2023/01/04 00:02:27;;;;;;;20.17;12.67;;;;;;;6.87;76.86;97830.88;5029162;28;20242;-72
2023/01/04 00:04:54;;;;;;;19.00;13.07;;;;;;;6.87;76.23;97822.31;5029824;28;20194;-72
2023/01/04 00:07:21;;;;;;;13.87;9.47;;;;;;;6.62;77.18;97823.63;5029019;28;20260;-72
2023/01/04 00:09:47;;;;;;;14.93;9.07;;;;;;;6.47;78.55;97833.31;5029749;28;20223;-72
2023/01/04 00:12:14;;;;;;;13.40;9.80;;;;;;;6.31;79.14;97816.44;5029227;28;20268;-74
2023/01/04 00:14:41;;;;;;;16.07;10.17;;;;;;;6.14;80.12;97815.03;5029457;28;20188;-72
2023/01/04 00:17:08;;;;;;;15.70;9.97;;;;;;;6.29;80.23;97831.06;5029519;28;20212;-73
2023/01/04 00:19:35;;;;;;;14.80;10.00;;;;;;;6.39;81.49;97830.03;5029111;28;20289;-73
2023/01/04 00:22:02;;;;;;;15.57;10.60;;;;;;;6.36;80.81;97813.81;5029665;28;20645;-74
2023/01/04 00:24:29;;;;;;;16.23;10.60;;;;;;;6.60;79.11;97828.81;5028659;28;20300;-71
2023/01/04 00:26:55;;;;;;;18.77;11.47;;;;;;;6.58;78.61;97835.72;5028061;28;20265;-71
2023/01/04 00:29:23;;;;;;;22.40;13.60;;;;;;;6.51;77.90;97813.53;5028703;28;20196;-74
2023/01/04 00:31:49;;;;;;;38.50;20.37;;;;;;;6.69;76.71;97835.53;5029158;28;20194;-72
2023/01/04 00:34:17;;;;;;;20.13;12.00;;;;;;;6.37;77.13;97841.22;5027600;28;20689;-72
2023/01/04 00:36:44;;;;;;;15.77;10.90;;;;;;;6.12;77.94;97829.63;5028886;28;20232;-72
2023/01/04 00:39:14;;;;;;;14.83;10.83;;;;;;;5.89;78.88;97831.69;5028851;28;20287;-72
2023/01/04 00:41:43;;;;;;;14.17;9.30;;;;;;;5.97;79.13;97835.84;5028440;28;20699;-72
2023/01/04 00:44:28;;;;;;;13.20;9.00;;;;;;;6.16;81.04;97831.28;5029157;28;20189;-72
2023/01/04 00:46:55;;;;;;;12.40;8.87;;;;;;;5.97;80.19;97835.84;5028434;28;20665;-71
2023/01/04 00:49:23;;;;;;;11.53;8.30;;;;;;;6.09;80.34;97840.81;5028901;28;20215;-71
2023/01/04 00:51:50;;;;;;;17.53;11.03;;;;;;;6.15;80.87;97840.72;5027163;28;20223;-74
2023/01/04 00:54:18;;;;;;;17.63;11.80;;;;;;;6.22;79.29;97841.47;5026884;28;20228;-72
2023/01/04 00:56:46;;;;;;;21.27;15.03;;;;;;;6.19;79.37;97842.38;5028811;28;20578;-74
2023/01/04 00:59:17;;;;;;;32.87;19.67;;;;;;;6.27;78.52;97845.66;5027935;28;20296;-73
2023/01/04 01:01:44;;;;;;;23.20;15.63;;;;;;;6.16;79.07;97852.69;5029081;28;20909;-72
2023/01/04 01:04:14;;;;;;;15.60;11.97;;;;;;;6.22;78.00;97847.44;5028109;28;20249;-72
2023/01/04 01:06:41;;;;;;;16.73;10.23;;;;;;;6.19;77.00;97844.06;5028333;28;20214;-74
2023/01/04 01:09:09;;;;;;;14.30;9.07;;;;;;;6.12;77.51;97834.78;5028223;28;20187;-74
2023/01/04 01:11:37;;;;;;;14.50;9.83;;;;;;;5.89;79.42;97850.56;5028337;28;20185;-74
2023/01/04 01:14:06;;;;;;;16.37;10.17;;;;;;;5.92;78.80;97847.06;5028607;28;20208;-72
2023/01/04 01:16:33;;;;;;;18.60;11.43;;;;;;;6.04;77.85;97842.59;5027939;28;20875;-71
2023/01/04 01:19:19;;;;;;;20.47;12.63;;;;;;;6.12;77.25;97842.50;5028322;28;20190;-72
2023/01/04 01:21:46;;;;;;;13.47;9.40;;;;;;;5.77;77.81;97835.25;5028000;28;20281;-72
2023/01/04 01:24:15;;;;;;;16.83;9.03;;;;;;;5.60;79.99;97834.66;5027987;28;20196;-71
2023/01/04 01:26:42;;;;;;;14.83;9.30;;;;;;;5.63;78.24;97829.44;5028113;28;20225;-72
2023/01/04 01:29:09;;;;;;;13.47;7.80;;;;;;;5.45;79.33;97833.13;5026253;28;20240;-71
2023/01/04 01:31:36;;;;;;;11.07;7.87;;;;;;;5.33;79.02;97840.13;5028174;28;20196;-72
2023/01/04 01:34:03;;;;;;;11.40;8.27;;;;;;;5.33;79.78;97845.28;5027408;28;20258;-73
2023/01/04 01:36:30;;;;;;;12.40;7.40;;;;;;;5.33;79.45;97845.28;5028121;28;20250;-73
2023/01/04 01:38:58;;;;;;;9.07;6.47;;;;;;;5.18;80.21;97845.44;5027545;28;20199;-72
2023/01/04 01:41:28;;;;;;;11.00;6.93;;;;;;;4.96;81.19;97801.22;5027817;28;20209;-72
2023/01/04 01:43:58;;;;;;;9.37;7.10;;;;;;;5.40;83.36;97840.03;5027648;28;20193;-73
2023/01/04 01:46:37;;;;;;;11.67;7.23;;;;;;;5.57;82.36;97839.81;5027232;28;20281;-72
2023/01/04 01:49:14;;;;;;;10.07;6.80;;;;;;;5.69;81.16;97839.66;5028010;28;21035;-72
2023/01/04 01:51:42;;;;;;;10.27;6.70;;;;;;;5.60;81.01;97839.78;5027238;28;20252;-73
2023/01/04 01:54:19;;;;;;;10.40;6.93;;;;;;;5.64;79.83;97839.72;5027650;28;20200;-74
2023/01/04 01:56:48;;;;;;;9.63;6.50;;;;;;;5.56;80.94;97838.13;5027292;28;20211;-73
2023/01/04 01:59:17;;;;;;;11.80;7.27;;;;;;;5.58;81.01;97847.53;5027328;28;20200;-73
2023/01/04 02:01:44;;;;;;;11.57;7.97;;;;;;;5.75;80.11;97845.56;5027674;28;20227;-73
2023/01/04 02:04:12;;;;;;;17.10;9.60;;;;;;;5.76;78.96;97829.28;5026829;28;20790;-72
2023/01/04 02:06:53;;;;;;;18.50;10.40;;;;;;;5.82;78.44;97838.63;5027849;28;20225;-74
2023/01/04 02:09:22;;;;;;;17.33;10.60;;;;;;;5.83;79.65;97834.31;5026981;28;20197;-74
2023/01/04 02:11:49;;;;;;;17.80;10.83;;;;;;;5.75;77.72;97839.56;5027091;28;20216;-73
2023/01/04 02:14:28;;;;;;;21.57;11.50;;;;;;;5.45;79.23;97847.69;5027387;28;20277;-73
2023/01/04 02:17:09;;;;;;;17.53;10.37;;;;;;;5.57;79.76;97844.94;5026716;28;20198;-72
2023/01/04 02:19:54;;;;;;;17.00;9.43;;;;;;;5.65;79.59;97838.84;5027403;28;20254;-73
2023/01/04 02:22:40;;;;;;;14.40;9.57;;;;;;;5.48;80.05;97845.09;5026864;28;20206;-73
2023/01/04 02:25:19;;;;;;;15.43;8.30;;;;;;;5.63;79.17;97842.28;5026927;28;20274;-73
2023/01/04 02:27:56;;;;;;;15.13;9.13;;;;;;;5.56;78.49;97845.84;5027052;28;20268;-72
2023/01/04 02:31:01;;;;;;;14.10;8.50;;;;;;;5.50;79.85;97839.03;5026389;28;20232;-73
2023/01/04 02:33:43;;;;;;;12.30;8.17;;;;;;;5.55;79.90;97836.41;5027166;28;20718;-72
2023/01/04 02:36:20;;;;;;;13.87;9.40;;;;;;;5.55;79.26;97841.56;5027276;28;20284;-73
2023/01/04 02:38:59;;;;;;;16.33;8.93;;;;;;;5.53;78.48;97840.72;5026976;28;20202;-73
2023/01/04 02:41:37;;;;;;;17.57;10.67;;;;;;;5.40;79.89;97846.91;5027170;28;20185;-73
2023/01/04 02:47:03;;;;;;;13.00;9.00;;;;;;;5.32;78.61;97843.56;5026543;28;20238;-72
2023/01/04 02:52:17;;;;;;;12.53;8.63;;;;;;;5.22;79.95;97850.53;5041658;28;20242;-74
2023/01/04 02:54:47;;;;;;;13.53;8.20;;;;;;;5.18;80.14;97846.31;5026855;28;20650;-73
2023/01/04 02:57:46;;;;;;;17.20;10.83;;;;;;;5.09;81.18;97851.53;5026492;28;20224;-73
2023/01/04 03:00:19;;;;;;;16.87;10.67;;;;;;;5.25;80.38;97845.38;5026032;28;20286;-73
2023/01/04 03:08:45;;;;;;;11.20;8.10;;;;;;;5.10;80.05;97848.13;5026242;28;20223;-73
2023/01/04 03:14:07;;;;;;;9.77;6.77;;;;;;;4.97;81.94;97849.09;5026189;28;20902;-74
2023/01/04 03:16:54;;;;;;;10.07;6.97;;;;;;;5.07;80.73;97845.56;5026576;28;20713;-73
2023/01/04 03:36:23;;;;;;;13.37;8.47;;;;;;;4.79;81.98;97839.91;5034895;28;20605;-74
2023/01/04 03:50:40;;;;;;;14.87;9.73;;;;;;;4.59;83.38;97810.19;5046251;28;20673;-74
2023/01/04 03:53:08;;;;;;;10.83;8.63;;;;;;;4.93;82.56;97850.88;5045584;28;20207;-72
2023/01/04 03:55:38;;;;;;;13.30;7.67;;;;;;;4.97;81.97;97852.53;5045985;28;20895;-75
2023/01/04 03:58:05;;;;;;;13.60;8.43;;;;;;;5.05;80.95;97861.88;5046089;28;20290;-73
2023/01/04 04:00:32;;;;;;;10.40;8.07;;;;;;;5.01;81.58;97862.78;5046731;28;20738;-73
2023/01/04 04:03:06;;;;;;;11.20;8.10;;;;;;;4.88;81.54;97868.00;5049777;28;20190;-72
2023/01/04 04:08:27;;;;;;;14.40;8.77;;;;;;;4.85;82.55;97865.50;5049429;28;20224;-73
2023/01/04 04:13:47;;;;;;;15.33;9.47;;;;;;;4.87;83.36;97868.91;5048906;28;20216;-72
2023/01/04 04:16:16;;;;;;;18.40;10.00;;;;;;;4.88;83.24;97868.00;5049871;28;20748;-74
2023/01/04 04:18:43;;;;;;;15.23;10.03;;;;;;;4.91;82.38;97873.13;5048878;28;20206;-73
2023/01/04 04:21:10;;;;;;;15.43;9.50;;;;;;;5.00;82.34;97871.31;5049436;28;20195;-74
2023/01/04 04:23:37;;;;;;;20.07;12.27;;;;;;;4.97;82.13;97873.94;5049149;28;20205;-73
2023/01/04 04:26:04;;;;;;;17.60;11.00;;;;;;;4.97;81.84;97881.66;5048923;28;20223;-75
2023/01/04 04:28:31;;;;;;;22.77;12.53;;;;;;;4.92;81.19;97869.69;5049148;28;20262;-74
2023/01/04 04:30:58;;;;;;;16.97;10.40;;;;;;;4.87;82.46;97881.72;5046896;28;20199;-72
2023/01/04 04:33:25;;;;;;;14.80;9.67;;;;;;;4.74;83.22;97880.13;5049468;28;20212;-75
2023/01/04 04:35:53;;;;;;;16.07;10.67;;;;;;;4.80;83.05;97874.94;5048421;28;20206;-73
2023/01/04 04:38:21;;;;;;;14.23;9.43;;;;;;;4.84;83.05;97879.19;5048969;28;20645;-74
2023/01/04 04:43:34;;;;;;;15.83;10.00;;;;;;;4.79;83.18;97878.38;5048714;28;20306;-73
2023/01/04 04:46:01;;;;;;;14.60;9.80;;;;;;;4.65;84.29;97887.06;5045098;28;20203;-75
2023/01/04 04:48:28;;;;;;;13.17;9.40;;;;;;;4.48;85.96;97883.78;5039593;28;20222;-74
2023/01/04 04:50:55;;;;;;;15.10;10.03;;;;;;;4.43;88.02;97873.56;5042463;28;20198;-73
2023/01/04 04:53:22;;;;;;;13.47;9.13;;;;;;;4.62;87.89;97895.63;5034912;28;20682;-74
2023/01/04 04:55:51;;;;;;;16.00;9.73;;;;;;;4.69;87.87;97896.44;5028739;28;20210;-73
2023/01/04 04:58:18;;;;;;;13.20;9.70;;;;;;;4.75;87.76;97897.25;5028650;28;20203;-74
2023/01/04 05:00:45;;;;;;;15.50;9.50;;;;;;;4.44;87.38;97854.78;5037914;28;20223;-74
2023/01/04 05:03:12;;;;;;;14.73;9.73;;;;;;;4.85;87.26;97914.25;5047974;28;20195;-75
2023/01/04 05:05:39;;;;;;;16.23;10.57;;;;;;;4.82;86.82;97898.88;5044742;28;20211;-73
2023/01/04 05:08:07;;;;;;;17.57;10.53;;;;;;;4.84;86.55;97912.53;5048364;28;20255;-74
2023/01/04 05:10:33;;;;;;;14.50;10.13;;;;;;;4.74;85.41;97902.41;5045567;28;20680;-74
2023/01/04 05:13:00;;;;;;;13.20;9.67;;;;;;;4.75;85.18;97902.38;5047368;28;20206;-75
2023/01/04 05:15:31;;;;;;;21.37;10.57;;;;;;;4.79;84.53;97908.31;5047938;28;20205;-75
2023/01/04 05:17:58;;;;;;;19.87;11.17;;;;;;;4.84;84.64;97901.44;5048009;28;20281;-74
2023/01/04 05:20:25;;;;;;;22.60;11.93;;;;;;;4.90;83.71;97909.91;5048002;28;20198;-74
2023/01/04 05:22:52;;;;;;;23.17;12.40;;;;;;;4.90;84.23;97902.22;5047594;28;20286;-74
2023/01/04 05:25:19;;;;;;;19.40;13.33;;;;;;;4.97;83.64;97909.88;5048379;28;20665;-75
2023/01/04 05:27:46;;;;;;;16.23;10.47;;;;;;;5.02;82.48;97915.78;5047295;28;20238;-73
2023/01/04 05:33:01;;;;;;;16.40;9.83;;;;;;;4.37;84.06;97926.63;5047629;28;20202;-72
2023/01/04 05:35:28;;;;;;;16.73;10.60;;;;;;;4.23;84.18;97929.28;5047593;28;20209;-75
2023/01/04 05:37:55;;;;;;;22.00;11.90;;;;;;;3.76;84.87;97883.47;5047951;28;20681;-75
2023/01/04 05:40:22;;;;;;;12.97;10.10;;;;;;;3.95;86.35;97930.31;5047062;28;20194;-74
2023/01/04 05:42:49;;;;;;;18.33;10.50;;;;;;;3.85;87.82;97934.63;5048020;28;20196;-74
2023/01/04 05:45:18;;;;;;;15.43;9.43;;;;;;;3.96;87.63;97929.44;5046861;28;21081;-75
2023/01/04 05:47:49;;;;;;;14.73;9.90;;;;;;;3.98;88.82;97931.16;5046050;28;20704;-72
2023/01/04 05:50:17;;;;;;;17.47;9.87;;;;;;;4.08;88.93;97926.84;5047003;28;20519;-74
2023/01/04 05:52:44;;;;;;;15.23;9.07;;;;;;;4.15;89.66;97941.28;5046975;28;20583;-74
2023/01/04 05:55:11;;;;;;;15.07;10.47;;;;;;;4.24;89.98;97941.25;5047384;28;20214;-73
2023/01/04 05:57:38;;;;;;;15.63;10.73;;;;;;;4.25;89.72;97945.50;5047240;28;20252;-74
2023/01/04 06:00:07;;;;;;;14.73;9.97;;;;;;;4.43;89.44;97934.28;5047247;28;20673;-71
2023/01/04 06:02:41;;;;;;;14.73;9.63;;;;;;;4.57;89.44;97932.47;5046642;28;20185;-72
2023/01/04 06:05:09;;;;;;;15.93;10.77;;;;;;;4.73;87.77;97940.03;5047349;28;20282;-72
2023/01/04 06:07:38;;;;;;;15.83;11.57;;;;;;;4.84;87.60;97939.94;5046888;28;20201;-73
2023/01/04 06:10:07;;;;;;;18.37;12.00;;;;;;;4.86;87.15;97941.59;5046818;28;20194;-73
2023/01/04 06:12:34;;;;;;;16.77;11.30;;;;;;;4.84;87.40;97951.03;5047543;28;20294;-74
2023/01/04 06:15:02;;;;;;;17.57;10.80;;;;;;;4.81;87.39;97940.81;5046546;28;20579;-72
2023/01/04 06:17:29;;;;;;;20.17;12.37;;;;;;;4.97;87.43;97948.38;5047685;28;20284;-73
2023/01/04 06:19:56;;;;;;;19.27;13.27;;;;;;;5.10;86.54;97953.34;5046209;28;20216;-73
2023/01/04 06:22:25;;;;;;;25.00;15.70;;;;;;;5.01;85.59;97956.00;5046916;28;20358;-73
2023/01/04 06:24:52;;;;;;;31.20;17.43;;;;;;;4.97;85.08;97954.34;5045383;28;20197;-72
2023/01/04 06:27:19;;;;;;;26.17;17.07;;;;;;;4.99;85.42;97956.91;5046371;28;20762;-73
2023/01/04 06:29:46;;;;;;;24.60;17.23;;;;;;;5.06;85.10;97966.22;5046403;28;20605;-73
2023/01/04 06:32:13;;;;;;;23.10;16.60;;;;;;;5.02;83.70;97972.25;5046061;28;20264;-73
2023/01/04 06:34:40;;;;;;;30.67;19.13;;;;;;;4.89;83.51;97951.84;5046867;28;20646;-75
2023/01/04 06:37:08;;;;;;;28.90;17.70;;;;;;;5.05;84.23;97969.69;5045990;28;20229;-75
2023/01/04 06:39:36;;;;;;;23.23;14.77;;;;;;;4.95;83.98;97977.44;5047039;28;20270;-73
2023/01/04 06:42:03;;;;;;;19.90;13.80;;;;;;;4.96;84.55;97968.03;5046092;28;20222;-75
2023/01/04 06:44:33;;;;;;;22.50;13.73;;;;;;;5.11;84.59;97972.19;5046095;28;20749;-74
2023/01/04 06:47:00;;;;;;;25.07;17.37;;;;;;;5.05;84.56;97974.81;5046095;28;20622;-73
2023/01/04 06:49:27;;;;;;;22.90;16.10;;;;;;;5.05;84.62;97972.25;5045854;28;20276;-75
2023/01/04 06:51:54;;;;;;;27.17;16.47;;;;;;;5.21;84.22;97976.38;5045127;28;20191;-73
2023/01/04 06:54:20;;;;;;;31.67;18.17;;;;;;;5.51;84.60;97981.19;5043962;28;20233;-75
2023/01/04 06:56:47;;;;;;;31.47;15.93;;;;;;;5.50;83.36;97967.47;5046030;28;20191;-72
2023/01/04 06:59:14;;;;;;;27.20;17.90;;;;;;;5.62;82.43;97981.91;5045369;28;20298;-73
2023/01/04 07:01:41;;;;;;;28.10;16.77;;;;;;;5.67;80.78;97986.13;5046111;28;20524;-73
2023/01/04 07:04:09;;;;;;;24.53;15.67;;;;;;;5.69;81.68;97983.53;5046079;28;20214;-74
2023/01/04 07:06:36;;;;;;;27.20;15.43;;;;;;;5.70;81.45;97960.41;5045561;28;20202;-72
2023/01/04 07:09:03;;;;;;;29.63;16.67;;;;;;;5.94;81.38;97973.84;5045782;28;20552;-72
2023/01/04 07:11:29;;;;;;;31.93;17.87;;;;;;;6.20;81.34;97987.22;5045187;28;20681;-71
2023/01/04 07:13:56;;;;;;;33.43;20.57;;;;;;;6.30;81.08;97992.22;5045950;28;20274;-74
2023/01/04 07:16:23;;;;;;;34.97;21.87;;;;;;;6.37;80.05;97973.25;5045370;28;20200;-73
2023/01/04 07:18:51;;;;;;;39.13;24.30;;;;;;;6.40;80.38;97980.09;5045842;28;20204;-72
2023/01/04 07:21:18;;;;;;;45.03;25.77;;;;;;;6.62;79.28;97980.59;5045849;28;20663;-73
2023/01/04 07:23:45;;;;;;;69.37;34.93;;;;;;;6.60;79.59;97983.19;5044352;28;20198;-74
2023/01/04 07:26:12;;;;;;;51.23;27.20;;;;;;;6.81;79.03;97995.75;5045624;28;20193;-74
2023/01/04 07:31:24;;;;;;;34.00;21.17;;;;;;;6.88;79.74;97999.94;5044597;28;20201;-73
2023/01/04 07:33:51;;;;;;;31.47;21.67;;;;;;;6.98;78.26;98001.50;5044816;28;20194;-74
2023/01/04 07:36:18;;;;;;;37.47;22.67;;;;;;;7.14;78.83;97999.50;5047952;28;20227;-72
2023/01/04 07:38:45;;;;;;;34.50;23.60;;;;;;;6.95;78.72;97998.94;5048862;28;20673;-75
2023/01/04 07:41:12;;;;;;;34.60;23.30;;;;;;;6.77;80.98;97988.94;5049020;28;20196;-75
2023/01/04 07:43:39;;;;;;;37.40;22.23;;;;;;;6.87;80.12;98000.81;5049749;28;20252;-74
2023/01/04 07:46:06;;;;;;;47.23;25.27;;;;;;;6.96;81.04;98004.97;5047294;28;20955;-73
2023/01/04 07:48:33;;;;;;;43.73;25.63;;;;;;;7.05;81.09;98002.22;5049486;28;20221;-73
2023/01/04 07:50:59;;;;;;;42.67;23.33;;;;;;;7.24;80.29;98012.19;5048515;28;20663;-72
2023/01/04 07:53:26;;;;;;;28.60;20.03;;;;;;;7.16;81.07;98021.78;5049166;28;20225;-73
2023/01/04 07:55:57;;;;;;;27.83;18.27;;;;;;;7.24;81.33;98013.91;5048883;28;20197;-72
2023/01/04 07:58:24;;;;;;;26.77;17.13;;;;;;;7.42;80.99;98018.75;5049249;28;20197;-74
2023/01/04 08:00:51;;;;;;;25.00;17.90;;;;;;;7.42;81.77;97998.13;5049085;28;20190;-72
2023/01/04 08:03:18;;;;;;;19.13;14.47;;;;;;;7.59;81.25;98016.72;5048328;28;20190;-73
2023/01/04 08:05:45;;;;;;;21.03;14.60;;;;;;;7.55;81.75;98024.53;5049301;28;20201;-74
2023/01/04 08:08:12;;;;;;;17.87;12.93;;;;;;;7.51;81.92;98002.28;5048295;28;20308;-73
2023/01/04 08:10:39;;;;;;;22.47;14.87;;;;;;;7.68;81.35;98011.41;5049202;28;20650;-73
2023/01/04 08:13:06;;;;;;;35.90;20.77;;;;;;;7.92;81.12;98028.13;5048585;28;20384;-73
2023/01/04 08:15:33;;;;;;;26.67;16.73;;;;;;;8.13;81.05;98025.13;5048908;28;20197;-73
2023/01/04 08:18:00;;;;;;;24.73;17.90;;;;;;;8.27;79.99;98017.13;5048800;28;20194;-73
2023/01/04 08:20:27;;;;;;;25.80;17.53;;;;;;;8.44;80.49;98017.63;5048199;28;20232;-74
2023/01/04 08:22:54;;;;;;;23.07;15.60;;;;;;;8.62;79.23;98017.22;5048687;28;20592;-75
2023/01/04 08:25:21;;;;;;;19.60;15.37;;;;;;;8.77;78.85;98025.47;5047698;28;20201;-74
2023/01/04 08:27:49;;;;;;;21.33;15.23;;;;;;;8.91;78.63;98022.56;5048389;28;20234;-74
2023/01/04 08:30:16;;;;;;;24.70;16.13;;;;;;;9.03;78.16;98017.09;5048097;28;20230;-76
2023/01/04 08:32:45;;;;;;;25.67;16.60;;;;;;;9.20;77.92;98014.09;5048586;28;20178;-75
2023/01/04 08:35:12;;;;;;;22.07;16.13;;;;;;;9.34;77.25;98028.38;5048402;28;20214;-73
2023/01/04 08:37:39;;;;;;;22.43;16.03;;;;;;;9.44;76.75;98029.84;5048122;28;20197;-73
2023/01/04 08:40:07;;;;;;;24.27;16.83;;;;;;;9.62;76.54;98024.19;5048370;28;20191;-73
2023/01/04 08:42:34;;;;;;;23.07;15.93;;;;;;;9.31;78.10;98006.94;5046254;28;20281;-73
2023/01/04 08:45:01;;;;;;;17.83;13.20;;;;;;;9.26;79.06;98009.63;5048734;28;20220;-72
2023/01/04 08:47:31;;;;;;;20.50;14.30;;;;;;;9.37;79.58;98002.47;5046259;28;20231;-73
2023/01/04 08:49:59;;;;;;;22.80;15.93;;;;;;;9.58;78.59;97999.31;5046774;28;20223;-75
2023/01/04 08:52:35;;;;;;;22.13;13.40;;;;;;;9.70;78.43;98011.09;5047567;28;20221;-74
2023/01/04 08:55:02;;;;;;;20.80;14.33;;;;;;;9.88;77.52;98015.75;5047453;28;20289;-72
2023/01/04 08:57:38;;;;;;;20.30;12.57;;;;;;;10.03;77.10;98025.69;5047909;28;20918;-73
2023/01/04 09:00:06;;;;;;;20.90;13.77;;;;;;;10.13;76.59;98011.63;5046796;28;20213;-74
2023/01/04 09:02:33;;;;;;;20.87;13.03;;;;;;;10.29;76.41;98012.03;5046627;28;20598;-73
2023/01/04 09:05:02;;;;;;;21.67;15.50;;;;;;;10.30;75.79;98008.56;5047110;28;20189;-74
2023/01/04 09:07:31;;;;;;;25.40;15.10;;;;;;;9.52;76.03;97884.88;5047651;28;20212;-75
2023/01/04 09:09:59;;;;;;;23.37;15.90;;;;;;;10.38;75.97;98009.19;5029137;28;20287;-73
2023/01/04 09:12:27;;;;;;;18.83;15.13;;;;;;;10.38;75.39;98001.41;5047355;28;20209;-72
2023/01/04 09:14:54;;;;;;;20.13;14.20;;;;;;;10.42;76.00;98009.03;5047749;28;20203;-74
2023/01/04 09:17:21;;;;;;;18.90;13.40;;;;;;;10.57;76.24;98008.56;5045768;28;20229;-74
2023/01/04 09:19:48;;;;;;;20.30;13.80;;;;;;;10.52;75.29;97983.72;5047830;28;20368;-73
2023/01/04 09:22:15;;;;;;;20.23;13.47;;;;;;;10.45;76.00;97970.09;5046623;28;20636;-72
2023/01/04 09:24:42;;;;;;;16.77;11.33;;;;;;;10.72;75.30;98001.22;5048072;28;20207;-73
2023/01/04 09:27:09;;;;;;;15.53;11.23;;;;;;;10.77;75.28;97997.59;5048317;28;20186;-72
2023/01/04 09:29:36;;;;;;;19.03;12.43;;;;;;;10.91;75.03;97995.44;5053443;28;20233;-75
2023/01/04 09:32:03;;;;;;;22.63;15.43;;;;;;;10.99;75.38;98003.81;5048165;28;20285;-74
2023/01/04 09:34:30;;;;;;;15.60;11.47;;;;;;;11.02;74.59;97977.81;5048112;28;20217;-73
2023/01/04 09:36:57;;;;;;;19.33;12.23;;;;;;;11.17;74.45;97985.06;5047801;28;20244;-74
2023/01/04 09:39:25;;;;;;;17.03;11.77;;;;;;;11.13;74.43;97980.00;5046479;28;20185;-73
2023/01/04 09:42:04;;;;;;;21.37;12.60;;;;;;;11.04;74.71;97978.59;5045892;28;20606;-73
2023/01/04 09:44:44;;;;;;;17.27;11.53;;;;;;;10.84;75.16;97951.63;5046601;28;20645;-73
2023/01/04 09:47:41;;;;;;;17.93;10.93;;;;;;;11.34;74.07;97982.75;5046447;28;20198;-73
2023/01/04 09:50:25;;;;;;;17.43;10.90;;;;;;;10.97;74.68;97984.00;5046774;28;20734;-72
2023/01/04 09:53:03;;;;;;;19.43;11.07;;;;;;;11.30;74.12;97978.56;5044714;28;20206;-72
2023/01/04 09:55:42;;;;;;;15.80;11.57;;;;;;;11.34;74.06;97985.34;5044990;28;20205;-73
2023/01/04 09:58:21;;;;;;;16.87;10.67;;;;;;;11.30;73.45;97956.97;5046083;28;20232;-72
2023/01/04 10:00:56;;;;;;;21.57;15.33;;;;;;;11.44;73.15;97967.72;5046055;28;20202;-73
2023/01/04 10:03:30;;;;;;;24.90;16.17;;;;;;;11.53;73.62;97951.00;5046948;28;20191;-73
2023/01/04 10:05:57;;;;;;;17.37;11.00;;;;;;;11.73;72.83;97969.31;5044455;28;20200;-73
2023/01/04 10:08:24;;;;;;;15.40;11.00;;;;;;;11.65;73.01;97938.44;5046343;28;20282;-73
2023/01/04 10:10:54;;;;;;;12.90;9.70;;;;;;;11.64;73.33;97956.66;5045862;28;20248;-73
2023/01/04 10:13:42;;;;;;;18.67;13.40;;;;;;;11.90;73.25;97956.59;5044653;28;20279;-75
2023/01/04 10:16:12;;;;;;;15.50;10.83;;;;;;;11.92;72.37;97958.25;5045117;28;20191;-73
2023/01/04 10:19:04;;;;;;;15.80;11.23;;;;;;;11.94;72.12;97948.66;5044303;28;20882;-75
2023/01/04 10:22:10;;;;;;;16.43;10.47;;;;;;;11.79;72.94;97950.94;5044615;28;20334;-73
2023/01/04 10:25:01;;;;;;;14.23;10.20;;;;;;;12.07;71.75;97951.66;5046378;28;20186;-75
2023/01/04 10:27:48;;;;;;;15.03;10.83;;;;;;;12.06;72.12;97947.34;5045372;28;20267;-76
2023/01/04 10:30:40;;;;;;;15.87;11.73;;;;;;;12.21;71.44;97946.78;5034166;28;20266;-74
2023/01/04 10:33:12;;;;;;;18.80;11.97;;;;;;;12.32;71.08;97942.03;5045856;28;20835;-75
2023/01/04 10:35:44;;;;;;;17.40;11.27;;;;;;;12.44;70.40;97938.09;5045534;28;20215;-75
2023/01/04 10:38:23;;;;;;;16.63;9.83;;;;;;;12.40;70.70;97927.00;5046080;28;20222;-74
2023/01/04 10:40:51;;;;;;;20.27;10.23;;;;;;;12.41;70.26;97922.63;5044740;28;20203;-75
2023/01/04 10:43:42;;;;;;;14.50;10.47;;;;;;;12.45;70.39;97935.44;5045740;28;20197;-74
2023/01/04 10:46:42;;;;;;;13.33;9.20;;;;;;;12.31;70.50;97927.34;5045928;28;20198;-74
2023/01/04 10:49:50;;;;;;;14.30;9.93;;;;;;;12.53;69.58;97932.56;5044962;28;20210;-76
2023/01/04 10:52:27;;;;;;;18.03;10.40;;;;;;;12.54;70.35;97919.50;5045339;28;20576;-73
2023/01/04 10:55:00;;;;;;;12.07;9.10;;;;;;;12.85;68.79;97930.38;5045805;28;20287;-74
2023/01/04 10:57:29;;;;;;;13.07;8.80;;;;;;;12.91;68.57;97934.47;5043949;28;20588;-74
2023/01/04 11:00:06;;;;;;;13.03;9.40;;;;;;;12.92;68.51;97937.00;5044841;28;20254;-75
2023/01/04 11:02:51;;;;;;;13.87;8.67;;;;;;;12.70;68.61;97901.53;5045155;28;20282;-74
2023/01/04 11:05:37;;;;;;;13.13;9.23;;;;;;;12.70;68.96;97925.78;5045606;28;20197;-72
2023/01/04 11:08:13;;;;;;;12.83;9.20;;;;;;;12.86;68.60;97921.66;5045742;28;20676;-75
2023/01/04 11:11:11;;;;;;;10.23;7.70;;;;;;;12.96;68.03;97917.75;5046563;28;20650;-75
2023/01/04 11:13:38;;;;;;;12.70;9.63;;;;;;;12.87;68.34;97920.75;5041057;28;20288;-75
2023/01/04 11:16:06;;;;;;;12.03;9.23;;;;;;;12.86;68.23;97910.41;5049103;28;20240;-74
2023/01/04 11:18:38;;;;;;;12.73;9.50;;;;;;;13.23;67.57;97920.19;5048904;28;20673;-75
2023/01/04 11:21:11;;;;;;;12.97;9.67;;;;;;;13.15;67.62;97923.06;5049696;28;20570;-74
2023/01/04 11:23:38;;;;;;;13.60;9.47;;;;;;;13.27;66.54;97917.34;5049035;28;20232;-75
2023/01/04 11:26:29;;;;;;;15.40;9.73;;;;;;;13.10;67.79;97919.00;5050314;28;20236;-75
2023/01/04 11:29:14;;;;;;;11.97;8.60;;;;;;;13.01;67.30;97908.03;5047553;28;20281;-75
2023/01/04 11:31:49;;;;;;;16.43;9.80;;;;;;;13.15;67.11;97920.47;5047582;28;20654;-73
2023/01/04 11:34:17;;;;;;;17.67;9.73;;;;;;;13.14;67.22;97910.16;5050238;28;20235;-73
2023/01/04 11:36:46;;;;;;;12.23;8.07;;;;;;;13.11;65.83;97910.28;5048704;28;20681;-74
2023/01/04 11:39:18;;;;;;;13.90;9.63;;;;;;;13.19;66.68;97918.63;5048183;28;20201;-75
2023/01/04 11:41:59;;;;;;;12.33;8.43;;;;;;;13.16;66.67;97908.31;5048890;28;20190;-74
2023/01/04 11:44:31;;;;;;;11.53;8.20;;;;;;;13.18;66.98;97925.56;5049076;28;20293;-72
2023/01/04 11:47:06;;;;;;;12.20;8.23;;;;;;;13.12;66.50;97918.03;5049387;28;20670;-73
2023/01/04 11:49:35;;;;;;;12.23;8.27;;;;;;;12.96;67.04;97906.53;5048378;28;20236;-75
2023/01/04 11:52:28;;;;;;;11.97;8.33;;;;;;;13.03;66.77;97913.16;5047640;28;20197;-75
2023/01/04 11:54:55;;;;;;;11.80;9.60;;;;;;;13.00;66.86;97913.31;5048372;28;20223;-73
2023/01/04 11:57:22;;;;;;;15.27;9.50;;;;;;;13.04;66.40;97913.13;5047276;28;20265;-74
2023/01/04 12:00:25;;;;;;;13.23;8.57;;;;;;;12.91;67.28;97909.31;5047352;28;20204;-71
2023/01/04 12:03:12;;;;;;;12.90;8.73;;;;;;;12.97;66.42;97906.47;5046494;28;20263;-72
2023/01/04 12:05:39;;;;;;;16.17;10.83;;;;;;;12.98;67.09;97900.34;5048572;28;20679;-75
2023/01/04 12:08:28;;;;;;;14.73;9.80;;;;;;;12.96;66.80;97907.38;5048815;28;20699;-74
2023/01/04 12:10:57;;;;;;;12.10;9.67;;;;;;;12.91;66.62;97898.94;5048350;28;20731;-76
2023/01/04 12:13:25;;;;;;;16.93;10.43;;;;;;;12.90;66.99;97910.22;5049230;28;20214;-76
2023/01/04 12:15:58;;;;;;;14.17;9.57;;;;;;;12.85;67.16;97893.97;5047667;28;20200;-74
2023/01/04 12:18:29;;;;;;;13.47;9.87;;;;;;;12.91;66.89;97888.53;5047387;28;20283;-72
2023/01/04 12:20:56;;;;;;;18.53;11.80;;;;;;;12.88;67.15;97878.25;5048305;28;20197;-74
2023/01/04 12:23:23;;;;;;;29.63;12.33;;;;;;;12.96;67.14;97890.94;5048538;28;20190;-73
2023/01/04 12:25:52;;;;;;;14.33;10.37;;;;;;;12.78;66.98;97865.69;5048675;28;20186;-76
2023/01/04 12:28:39;;;;;;;17.17;11.23;;;;;;;13.00;67.10;97892.50;5048076;28;20726;-73
2023/01/04 12:31:17;;;;;;;18.00;10.30;;;;;;;12.97;66.53;97897.81;5048767;28;20232;-73
2023/01/04 12:33:50;;;;;;;15.17;10.07;;;;;;;12.93;66.98;97896.25;5047836;28;20284;-74
2023/01/04 12:36:39;;;;;;;19.97;11.10;;;;;;;12.99;66.74;97886.44;5048250;28;21078;-76
2023/01/04 12:39:12;;;;;;;21.17;12.53;;;;;;;13.00;66.17;97890.72;5040044;28;20855;-74
2023/01/04 12:41:39;;;;;;;13.00;9.07;;;;;;;13.03;64.89;97890.63;5047631;28;20612;-72
2023/01/04 12:44:37;;;;;;;16.33;10.97;;;;;;;13.02;63.92;97891.50;5048496;28;20229;-73